Language selection

My Weather Profile Weather Topics  | 

Strait of Georgia - south of Nanaimo: Past 24 Hour Conditions

 

Halibut Bank - 46146

10:00 PM PDT 13 June 2021Buoy position: 49.34N 123.72W
Disclaimer

This table is a summary of hourly weather conditions for the past 24 hours.
Please note that these observations might not always be representative of weather conditions over their associated marine area.

Date / Time
(PDT)
Wind(knots) Wave height(m) Wave period(s) Pressure(kPa) Air tempC) Water tempC)
13 June 2021
22:00 SSE 12 gust 13 0.1 2.0 101.2 15 16
21:00 SSE 10 gust 12 0.1 2.0 101.2 16 16
20:00 ESE 8 gust 10 0.2 2.0 101.2 16 16
19:00 SE 10 gust 12 0.2 2.0 101.2 16 16
18:00 SE 8 gust 10 0.2 2.0 101.2 15 16
17:00 N/A N/A N/A N/A N/A N/A
16:00 N/A N/A N/A N/A N/A N/A
15:00 ESE 13 gust 16 0.4 3.0 101.2 16 16
14:00 ESE 13 gust 16 0.4 3.0 101.2 16 15
13:00 ESE 12 gust 16 0.3 3.0 101.2 16 15
12:00 ESE 12 gust 13 0.4 3.0 101.2 15 14
11:00 ESE 10 gust 13 0.4 3.0 101.2 15 14
10:00 E 13 gust 13 0.4 3.0 101.2 15 14
9:00 E 13 gust 16 0.5 3.0 101.1 15 13
8:00 ESE 16 gust 17 0.3 3.0 101.0 15 13
7:00 ESE 12 gust 13 0.2 3.0 101.0 14 14
6:00 SE 12 gust 13 0.2 3.0 101.0 14 15
5:00 SSW 4 gust 6 0.2 3.0 100.9 13 15
4:00 S 10 gust 12 0.4 3.0 100.9 14 15
3:00 SSE 12 gust 16 0.3 2.0 100.8 15 15
2:00 SE 4 gust 4 0.2 3.0 100.9 15 15
1:00 NW 2 gust 6 N/A 3.0 101.0 15 15
0:00 W 4 gust 6 0.1 6.0 100.9 15 15
12 June 2021
23:00 SSW 4 gust 8 0.1 5.0 101.0 16 16
22:00 N 6 gust 8 0.1 3.0 101.0 16 15

Zoom-in to make a selection

Map of Pacific - Georgia Basin marine weather areas Sentry Shoal - 46131 Halibut Bank - 46146 La Perouse Bank - 46206 Georgia Strait - 46303 English Bay - 46304 Discovery Island Esquimalt Harbour Kelp Reefs Malahat Race Rocks Lightstation Saturna Island Sheringham Point University of Victoria Victoria Gonzales Victoria Int'l Airport Ballenas Islands Campbell River Airport Comox Airport Entrance Island Fanny Island Nanaimo Airport Sisters Islets Estevan Point Port Alberni Tofino Airport Grief Point Howe Sound - Pam Rocks Powell River Airport Sechelt Squamish Airport Point Atkinson Sand Heads Lightstation Tsawwassen Ferry Terminal Vancouver Int'l Airport Vancouver Harbour West Vancouver
Legend:
buoy Buoy
land station Land Station

Pacific - Georgia Basin Area

Another Region

What we are doing

Date modified: